Time;durP1;ratioP1;P1;durP2;ratioP2;P2;SDS_P1;SDS_P2;PMS_P1;PMS_P2;Temp;Humidity;BMP_temperature;BMP_pressure;BME280_temperature;BME280_humidity;BME280_pressure;Samples;Min_cycle;Max_cycle;Signal;HPM_P1;HPM_P2
2023/12/03 00:00:07;;;;;;;9.45;6.45;;;;;;;20.09;47.14;99679.22;41365020;28;20482;-69
2023/12/03 00:20:08;;;;;;;7.38;5.80;;;;;;;20.12;46.75;99753.41;41323574;28;20393;-70
2023/12/03 00:40:09;;;;;;;6.20;5.00;;;;;;;20.08;47.20;99785.31;41304911;28;20053;-70
2023/12/03 01:00:10;;;;;;;6.10;5.15;;;;;;;20.09;47.01;99811.50;41312552;28;20042;-70
2023/12/03 01:20:11;;;;;;;6.57;4.93;;;;;;;20.13;46.73;99886.50;41337946;28;20046;-70
2023/12/03 01:40:11;;;;;;;5.82;4.68;;;;;;;20.10;46.79;99915.69;41323656;28;20030;-71
2023/12/03 02:00:12;;;;;;;6.05;4.75;;;;;;;20.10;46.61;99963.00;41332704;28;20089;-69
2023/12/03 02:20:12;;;;;;;5.13;4.00;;;;;;;20.17;46.59;100001.94;41325600;28;20386;-70
2023/12/03 02:40:12;;;;;;;4.63;3.67;;;;;;;20.14;46.55;100022.22;41330452;28;20050;-71
2023/12/03 03:00:13;;;;;;;4.95;4.15;;;;;;;20.10;46.24;100046.25;41341091;28;20129;-70
2023/12/03 03:20:15;;;;;;;4.05;3.63;;;;;;;20.08;45.90;100103.34;41327247;28;20124;-68
2023/12/03 03:40:16;;;;;;;3.90;3.50;;;;;;;20.07;46.10;100175.28;41344215;28;20516;-71
2023/12/03 04:00:16;;;;;;;3.83;3.28;;;;;;;20.09;46.22;100234.69;41357423;28;20042;-70
2023/12/03 04:20:17;;;;;;;3.55;3.25;;;;;;;20.07;45.88;100241.00;41314730;28;20046;-70
2023/12/03 04:40:17;;;;;;;3.50;3.20;;;;;;;20.05;45.95;100285.78;41304290;28;20095;-70
2023/12/03 05:00:18;;;;;;;5.60;2.95;;;;;;;20.07;45.98;100325.13;41356185;28;20117;-70
2023/12/03 05:20:18;;;;;;;3.17;2.88;;;;;;;20.41;44.86;100360.25;41290399;28;20069;-70
2023/12/03 05:40:18;;;;;;;3.13;2.83;;;;;;;20.65;44.49;100390.94;41308521;28;20058;-71
2023/12/03 06:00:19;;;;;;;3.35;2.80;;;;;;;20.82;44.96;100423.91;41296130;28;20042;-70
2023/12/03 06:20:19;;;;;;;3.80;2.70;;;;;;;20.89;45.19;100461.13;41268565;28;23549;-68
2023/12/03 06:40:20;;;;;;;3.60;2.90;;;;;;;20.91;44.71;100485.53;41334045;28;20072;-69
2023/12/03 07:00:21;;;;;;;3.10;2.50;;;;;;;20.98;44.72;100520.16;41301431;28;20057;-69
2023/12/03 07:20:23;;;;;;;3.53;2.80;;;;;;;21.00;44.60;100548.03;41366748;28;20050;-70
2023/12/03 07:40:23;;;;;;;4.40;3.22;;;;;;;21.11;44.79;100578.84;41357427;28;20664;-70
2023/12/03 08:00:24;;;;;;;4.68;3.53;;;;;;;20.93;45.45;100631.91;41293662;28;20042;-70
2023/12/03 08:20:25;;;;;;;204.98;109.75;;;;;;;20.97;46.09;100655.34;41301110;28;20058;-69
2023/12/03 08:40:25;;;;;;;204.68;120.25;;;;;;;20.93;46.00;100692.44;41346062;28;20131;-69
2023/12/03 09:00:27;;;;;;;166.77;100.57;;;;;;;20.98;45.29;100700.00;41332555;28;20390;-71
2023/12/03 09:20:27;;;;;;;143.57;89.60;;;;;;;20.99;44.84;100714.00;41331335;28;20050;-71
2023/12/03 09:40:27;;;;;;;126.75;78.97;;;;;;;21.03;44.23;100702.28;41360252;28;20582;-69
2023/12/03 10:00:29;;;;;;;110.30;68.97;;;;;;;21.23;44.46;100704.34;41345805;28;20049;-70
2023/12/03 10:20:30;;;;;;;97.15;60.35;;;;;;;21.26;45.47;100704.13;41371045;28;20157;-71
2023/12/03 10:40:32;;;;;;;91.70;55.05;;;;;;;21.39;44.92;100740.94;41316662;28;20505;-70
2023/12/03 11:00:40;;;;;;;78.95;49.13;;;;;;;21.36;45.18;100761.38;41408477;28;20034;-71
2023/12/03 11:20:44;;;;;;;70.22;42.22;;;;;;;21.23;44.95;100772.81;41447059;28;20080;-75
2023/12/03 11:40:45;;;;;;;59.53;37.20;;;;;;;20.99;45.08;100809.63;41451711;28;20049;-74
2023/12/03 12:00:48;;;;;;;51.13;33.70;;;;;;;20.94;45.09;100830.16;41453878;28;20523;-75
2023/12/03 12:20:50;;;;;;;45.75;30.88;;;;;;;20.99;44.17;100819.31;41460287;28;20085;-75
2023/12/03 12:40:52;;;;;;;40.97;26.15;;;;;;;21.20;43.32;100798.53;41441306;28;20600;-75
2023/12/03 13:00:53;;;;;;;34.05;22.83;;;;;;;21.57;42.73;100823.09;41443563;28;20045;-74
2023/12/03 13:20:55;;;;;;;30.92;21.02;;;;;;;21.56;43.14;100825.81;41391760;28;20443;-72
2023/12/03 13:40:56;;;;;;;28.70;19.23;;;;;;;21.39;43.49;100838.41;41351033;28;20050;-73
2023/12/03 14:00:58;;;;;;;24.90;16.88;;;;;;;21.31;43.70;100893.41;41398785;28;20046;-75
2023/12/03 14:20:58;;;;;;;26.80;17.00;;;;;;;21.36;45.26;100935.25;41339516;28;20048;-74
2023/12/03 14:40:58;;;;;;;23.35;17.08;;;;;;;21.13;47.50;100952.63;41375895;28;20053;-77
2023/12/03 15:00:59;;;;;;;22.98;15.73;;;;;;;21.02;46.61;101003.38;41315386;28;20987;-73
2023/12/03 15:21:00;;;;;;;11.32;8.70;;;;;;;19.16;38.18;100984.25;41362767;28;20046;-76
2023/12/03 15:41:01;;;;;;;12.93;8.80;;;;;;;20.50;40.84;101005.84;41363108;28;20042;-72
2023/12/03 16:01:03;;;;;;;11.20;8.55;;;;;;;20.48;43.81;101039.28;41463166;28;20042;-72
2023/12/03 16:21:03;;;;;;;12.07;8.48;;;;;;;20.43;44.41;101058.03;41386534;28;20146;-75
2023/12/03 16:41:04;;;;;;;10.88;8.65;;;;;;;20.35;44.57;101065.56;41348778;28;20085;-74
2023/12/03 17:01:09;;;;;;;10.80;7.95;;;;;;;20.30;44.71;101063.19;41355009;28;20060;-72
2023/12/03 17:21:10;;;;;;;11.32;7.20;;;;;;;20.15;45.43;101059.75;41340483;28;20182;-75
2023/12/03 17:41:11;;;;;;;11.68;7.43;;;;;;;20.28;45.17;101078.22;41335852;28;20800;-73
2023/12/03 18:01:12;;;;;;;9.10;6.63;;;;;;;20.33;46.07;101088.47;41374609;28;20049;-74
2023/12/03 18:21:18;;;;;;;9.55;6.88;;;;;;;20.31;46.49;101101.72;41503330;28;20117;-75
2023/12/03 18:41:23;;;;;;;9.00;6.63;;;;;;;20.25;46.85;101109.13;41464414;28;20046;-74
2023/12/03 19:01:27;;;;;;;6.53;5.35;;;;;;;20.24;46.84;101126.72;41393679;28;20034;-75
2023/12/03 19:21:28;;;;;;;8.05;5.57;;;;;;;20.28;46.07;101127.38;41446432;28;20129;-74
2023/12/03 19:41:31;;;;;;;7.68;5.28;;;;;;;20.16;46.59;101139.47;41327764;28;20046;-74
2023/12/03 20:01:32;;;;;;;6.90;4.80;;;;;;;20.18;46.14;101169.16;41424709;28;20129;-74
2023/12/03 20:21:37;;;;;;;8.73;4.75;;;;;;;20.20;45.84;101190.09;41325795;28;20038;-75
2023/12/03 20:41:38;;;;;;;5.53;4.60;;;;;;;20.26;45.50;101209.00;41325072;28;20432;-74
2023/12/03 21:01:39;;;;;;;9.32;4.40;;;;;;;20.28;45.75;101222.03;41304114;28;20126;-74
2023/12/03 21:21:39;;;;;;;5.22;4.50;;;;;;;20.18;45.60;101210.38;41290455;28;20160;-75
2023/12/03 21:41:40;;;;;;;4.90;3.70;;;;;;;20.12;45.63;101220.31;41352450;28;20514;-73
2023/12/03 22:01:40;;;;;;;4.10;3.67;;;;;;;20.10;45.57;101219.59;41397914;28;20046;-75
2023/12/03 22:21:40;;;;;;;5.03;4.03;;;;;;;20.07;45.58;101213.66;41352495;28;20069;-75
2023/12/03 22:41:41;;;;;;;5.75;3.55;;;;;;;20.06;45.21;101214.59;41344579;28;20050;-74
2023/12/03 23:01:42;;;;;;;4.05;3.53;;;;;;;20.08;45.42;101225.84;41339905;28;20501;-74
2023/12/03 23:21:43;;;;;;;4.20;3.63;;;;;;;20.05;45.39;101218.16;41331724;28;20050;-76
2023/12/03 23:41:43;;;;;;;4.97;3.53;;;;;;;20.07;45.30;101226.81;41319603;28;20105;-76
